Time;durP1;ratioP1;P1;durP2;ratioP2;P2;SDS_P1;SDS_P2;PMS_P1;PMS_P2;Temp;Humidity;BMP_temperature;BMP_pressure;BME280_temperature;BME280_humidity;BME280_pressure;Samples;Min_cycle;Max_cycle;Signal;HPM_P1;HPM_P2
2021/03/06 00:00:11;;;;;;;9.48;4.78;;;;;;;-1.50;59.12;99096.88;9973436;29;20046;-77
2021/03/06 00:05:48;;;;;;;9.27;4.78;;;;;;;-1.49;59.17;99103.13;9965655;29;20078;-77
2021/03/06 00:11:08;;;;;;;10.00;4.18;;;;;;;-1.51;58.86;99106.34;10017134;29;20058;-77
2021/03/06 00:16:28;;;;;;;9.32;3.80;;;;;;;-1.53;58.92;99114.28;9997670;29;20491;-77
2021/03/06 00:21:48;;;;;;;5.82;3.20;;;;;;;-1.52;58.78;99115.78;9997800;29;20046;-77
2021/03/06 00:27:08;;;;;;;6.47;3.20;;;;;;;-1.52;59.08;99118.53;10010400;29;20050;-77
2021/03/06 00:32:28;;;;;;;7.60;3.67;;;;;;;-1.51;59.26;99132.97;9997559;29;20483;-77
2021/03/06 00:37:48;;;;;;;11.80;4.47;;;;;;;-1.49;59.48;99125.03;9996965;29;20052;-77
2021/03/06 00:43:08;;;;;;;12.30;5.03;;;;;;;-1.56;60.18;99128.16;10022365;29;20041;-77
2021/03/06 00:48:28;;;;;;;10.68;4.97;;;;;;;-1.65;60.19;99128.28;9996690;29;20050;-77
2021/03/06 00:53:48;;;;;;;12.68;5.13;;;;;;;-1.71;59.45;99124.75;10022186;29;20046;-77
2021/03/06 00:59:08;;;;;;;13.70;5.45;;;;;;;-1.74;60.11;99121.75;10009167;29;20098;-77
2021/03/06 01:04:28;;;;;;;8.23;4.45;;;;;;;-1.71;59.73;99111.81;9983811;29;20038;-77
2021/03/06 01:09:48;;;;;;;11.02;5.57;;;;;;;-1.76;60.13;99104.28;10017453;29;20132;-76
2021/03/06 01:15:09;;;;;;;10.60;5.78;;;;;;;-1.81;60.23;99099.50;10020941;29;20046;-77
2021/03/06 01:20:29;;;;;;;10.32;5.35;;;;;;;-1.80;60.39;99098.25;10046399;29;20404;-76
2021/03/06 01:25:48;;;;;;;10.13;4.80;;;;;;;-1.79;60.33;99102.50;10020622;29;20499;-77
2021/03/06 01:31:08;;;;;;;9.65;5.30;;;;;;;-1.81;60.42;99100.25;10020782;29;20121;-77
2021/03/06 01:36:28;;;;;;;10.23;4.90;;;;;;;-1.85;60.38;99096.19;10033238;29;20383;-77
2021/03/06 01:41:48;;;;;;;9.30;4.57;;;;;;;-1.89;60.34;99098.38;10046016;29;20049;-77
2021/03/06 01:47:08;;;;;;;8.02;4.22;;;;;;;-1.86;60.49;99102.91;10033050;29;20049;-77
2021/03/06 01:52:28;;;;;;;10.60;5.20;;;;;;;-1.89;60.90;99096.41;10045520;29;20042;-77
2021/03/06 01:57:50;;;;;;;10.35;4.75;;;;;;;-1.92;61.01;99093.88;10020017;29;20068;-77
2021/03/06 02:03:10;;;;;;;10.18;4.95;;;;;;;-1.94;60.62;99096.31;10019770;29;20076;-77
2021/03/06 02:08:30;;;;;;;10.30;4.65;;;;;;;-1.99;60.93;99088.78;10044712;29;20057;-77
2021/03/06 02:14:32;;;;;;;11.98;4.95;;;;;;;-2.01;61.74;99089.28;10032346;29;20049;-77
2021/03/06 02:20:16;;;;;;;11.25;3.92;;;;;;;-1.99;61.55;99088.78;10034327;29;20105;-77
2021/03/06 02:26:15;;;;;;;8.65;4.20;;;;;;;-2.04;61.63;99077.28;10045362;29;20512;-77
2021/03/06 02:31:35;;;;;;;9.80;4.88;;;;;;;-2.08;61.35;99084.94;10044973;29;20046;-77
2021/03/06 02:36:58;;;;;;;10.82;4.93;;;;;;;-2.10;61.25;99090.16;10019079;29;20042;-77
2021/03/06 02:42:24;;;;;;;10.77;4.45;;;;;;;-2.11;61.60;99085.91;10032135;29;20731;-77
2021/03/06 02:47:43;;;;;;;10.35;4.70;;;;;;;-2.10;61.85;99092.13;10032468;29;20053;-77
2021/03/06 02:53:03;;;;;;;9.02;4.00;;;;;;;-2.15;61.96;99099.00;10006391;29;20057;-77
2021/03/06 02:58:43;;;;;;;9.68;4.28;;;;;;;-2.21;62.26;99100.19;10018693;29;20046;-77
2021/03/06 03:04:20;;;;;;;7.80;3.95;;;;;;;-2.25;62.31;99105.84;10044377;29;20049;-77
2021/03/06 03:09:43;;;;;;;8.15;3.72;;;;;;;-2.25;62.05;99105.84;10032969;29;20494;-77
2021/03/06 03:15:10;;;;;;;6.90;3.30;;;;;;;-2.24;62.10;99101.88;10050371;29;20124;-77
2021/03/06 03:20:40;;;;;;;9.00;4.07;;;;;;;-2.26;62.59;99104.34;10038385;29;20045;-76
2021/03/06 03:26:00;;;;;;;7.15;3.28;;;;;;;-2.23;61.98;99113.56;10038487;29;20049;-77
2021/03/06 03:31:20;;;;;;;6.03;3.35;;;;;;;-2.23;61.99;99117.06;10024712;29;20045;-76
2021/03/06 03:36:40;;;;;;;7.43;2.97;;;;;;;-2.22;62.01;99126.00;10024365;29;20509;-77
2021/03/06 03:41:59;;;;;;;6.75;3.63;;;;;;;-2.25;62.60;99129.69;10024331;29;20049;-77
2021/03/06 03:47:19;;;;;;;7.22;3.28;;;;;;;-2.32;62.66;99123.41;10024042;29;20088;-77
2021/03/06 03:52:44;;;;;;;7.53;3.40;;;;;;;-2.32;62.70;99128.88;10036537;29;20057;-77
2021/03/06 03:58:04;;;;;;;5.53;3.25;;;;;;;-2.39;62.61;99129.25;10037315;29;20063;-77
2021/03/06 04:03:25;;;;;;;5.80;3.10;;;;;;;-2.40;62.14;99129.75;10036437;29;20049;-78
2021/03/06 04:08:45;;;;;;;7.40;3.15;;;;;;;-2.41;62.67;99128.97;10036552;29;20061;-77
2021/03/06 04:14:06;;;;;;;7.50;3.45;;;;;;;-2.40;62.75;99125.03;10023148;29;20101;-77
2021/03/06 04:19:26;;;;;;;6.75;3.20;;;;;;;-2.40;62.76;99132.47;10023324;29;20093;-77
2021/03/06 04:24:45;;;;;;;6.93;3.42;;;;;;;-2.46;62.75;99132.38;10022668;29;20046;-77
2021/03/06 04:30:10;;;;;;;7.00;3.30;;;;;;;-2.48;62.57;99136.81;10048242;29;20489;-77
2021/03/06 04:35:29;;;;;;;6.23;3.47;;;;;;;-2.50;62.96;99126.34;10048321;29;20097;-77
2021/03/06 04:40:49;;;;;;;6.07;3.40;;;;;;;-2.49;63.03;99138.78;10009578;29;20053;-76
2021/03/06 04:46:09;;;;;;;5.80;2.95;;;;;;;-2.49;62.87;99129.84;10034737;29;20046;-77
2021/03/06 04:51:29;;;;;;;5.07;2.97;;;;;;;-2.50;63.00;99142.00;10034748;29;20048;-77
2021/03/06 04:56:49;;;;;;;8.80;3.22;;;;;;;-2.54;62.81;99135.97;10034406;29;20045;-77
2021/03/06 05:02:10;;;;;;;7.88;3.70;;;;;;;-2.56;62.81;99141.16;10034724;29;20046;-76
2021/03/06 05:07:30;;;;;;;7.07;3.03;;;;;;;-2.55;62.80;99142.66;10033951;29;20072;-77
2021/03/06 05:12:50;;;;;;;7.72;3.70;;;;;;;-2.54;63.18;99141.44;10021321;29;20410;-79
2021/03/06 05:18:10;;;;;;;10.68;4.28;;;;;;;-2.57;62.97;99145.13;10043708;29;20074;-77
2021/03/06 05:23:29;;;;;;;8.27;4.15;;;;;;;-2.57;63.33;99156.03;10030909;29;20078;-77
2021/03/06 05:28:49;;;;;;;6.97;3.60;;;;;;;-2.54;63.12;99146.91;10033801;29;20068;-77
2021/03/06 05:34:09;;;;;;;7.43;3.90;;;;;;;-2.50;63.37;99153.69;10033104;29;20086;-77
2021/03/06 05:39:29;;;;;;;8.75;4.18;;;;;;;-2.36;63.60;99166.59;10034171;29;20402;-76
2021/03/06 05:44:49;;;;;;;8.95;4.03;;;;;;;-1.45;63.10;99156.47;9995885;29;20042;-77
2021/03/06 05:50:09;;;;;;;8.27;4.22;;;;;;;0.34;63.88;99160.06;9995654;29;20049;-78
2021/03/06 05:55:29;;;;;;;8.73;3.95;;;;;;;2.36;63.23;99169.41;9995141;29;20498;-78
2021/03/06 06:00:49;;;;;;;7.78;4.50;;;;;;;3.43;61.30;99169.69;9995339;29;20402;-78
2021/03/06 06:06:09;;;;;;;6.35;4.00;;;;;;;5.44;60.69;99166.81;9995557;29;20485;-77
2021/03/06 06:11:29;;;;;;;8.93;4.38;;;;;;;8.38;58.16;99173.00;9944963;29;20107;-79
2021/03/06 06:16:49;;;;;;;8.18;4.57;;;;;;;10.62;57.20;99180.91;9957862;29;20058;-79
2021/03/06 06:22:23;;;;;;;7.82;3.83;;;;;;;12.98;52.91;99194.69;9945202;29;20051;-78
2021/03/06 06:27:43;;;;;;;7.28;4.72;;;;;;;15.06;48.91;99189.69;9945688;29;20051;-79
2021/03/06 06:33:03;;;;;;;6.93;4.70;;;;;;;16.49;44.49;99191.91;9932074;29;20054;-79
2021/03/06 06:38:22;;;;;;;5.55;3.75;;;;;;;18.00;39.92;99205.19;9918407;29;20090;-76
2021/03/06 06:43:42;;;;;;;7.03;4.47;;;;;;;19.23;36.27;99218.09;9930814;29;20051;-78
2021/03/06 06:49:02;;;;;;;5.47;3.42;;;;;;;19.75;32.82;99216.75;9950003;29;20061;-78
2021/03/06 06:54:21;;;;;;;5.60;3.70;;;;;;;17.98;28.40;99224.84;9950650;29;20483;-77
2021/03/06 07:00:03;;;;;;;5.75;3.90;;;;;;;20.12;29.50;99240.03;9961919;29;20046;-78
2021/03/06 07:05:36;;;;;;;5.90;3.60;;;;;;;23.14;24.48;99238.81;9948539;29;20070;-77
2021/03/06 07:10:57;;;;;;;5.25;4.03;;;;;;;24.72;21.27;99243.47;9991993;29;20057;-79
2021/03/06 07:16:16;;;;;;;7.93;4.18;;;;;;;25.32;19.74;99255.53;9998866;29;20156;-79
2021/03/06 07:21:48;;;;;;;8.43;4.13;;;;;;;24.48;18.57;99251.88;9961645;29;20073;-79
2021/03/06 07:27:08;;;;;;;6.70;3.75;;;;;;;22.61;18.40;99246.47;9974240;29;20456;-78
2021/03/06 07:32:31;;;;;;;5.60;3.72;;;;;;;22.00;18.58;99250.88;9976611;29;21426;-77
2021/03/06 07:37:57;;;;;;;6.72;3.60;;;;;;;23.21;17.16;99250.47;9951133;29;20122;-79
2021/03/06 07:43:22;;;;;;;6.40;3.20;;;;;;;26.45;15.07;99256.88;9984604;29;20060;-78
2021/03/06 07:48:42;;;;;;;4.97;3.33;;;;;;;31.85;12.49;99252.78;9956772;29;20547;-77
2021/03/06 07:54:02;;;;;;;5.32;2.85;;;;;;;36.13;10.48;99253.25;9967925;29;20049;-77
2021/03/06 07:59:50;;;;;;;5.32;3.08;;;;;;;40.05;8.07;99241.31;10010021;29;20447;-78
2021/03/06 08:05:45;;;;;;;4.80;2.72;;;;;;;43.35;5.60;99246.75;10010759;29;20053;-79
2021/03/06 08:11:33;;;;;;;7.07;3.13;;;;;;;45.85;4.24;99237.22;9997610;29;20418;-78
2021/03/06 08:16:52;;;;;;;3.42;2.30;;;;;;;46.69;3.39;99236.31;10012452;29;20558;-77
2021/03/06 08:22:16;;;;;;;4.55;2.53;;;;;;;47.96;2.90;99233.28;10022968;29;20058;-77
2021/03/06 08:27:36;;;;;;;4.80;3.33;;;;;;;49.06;2.63;99237.41;9996968;29;20053;-79
2021/03/06 08:33:14;;;;;;;3.37;2.27;;;;;;;50.95;1.70;99247.84;9996975;29;20046;-79
2021/03/06 08:38:34;;;;;;;2.72;2.00;;;;;;;52.06;1.53;99232.59;9991888;29;20046;-77
2021/03/06 08:43:54;;;;;;;4.68;2.42;;;;;;;52.57;0.87;99228.50;9972227;29;20419;-77
2021/03/06 08:49:14;;;;;;;4.55;2.45;;;;;;;52.19;0.73;99241.25;9958595;29;20057;-78
2021/03/06 08:54:37;;;;;;;4.38;2.58;;;;;;;52.53;1.21;99222.19;9996090;29;20046;-79
2021/03/06 08:59:59;;;;;;;3.08;2.55;;;;;;;52.40;0.64;99227.69;9995958;29;20058;-77
2021/03/06 09:05:24;;;;;;;4.10;1.92;;;;;;;52.98;0.59;99218.47;9995651;29;20074;-78
2021/03/06 09:10:44;;;;;;;3.35;2.20;;;;;;;53.02;0.45;99224.78;9995184;29;20566;-79
2021/03/06 09:16:04;;;;;;;4.38;2.65;;;;;;;52.59;0.16;99236.56;9995371;29;20050;-78
2021/03/06 09:21:24;;;;;;;2.45;2.00;;;;;;;53.20;0.47;99231.50;10007819;29;20384;-79
2021/03/06 09:26:51;;;;;;;2.63;1.00;;;;;;;53.89;0.00;99225.56;10007604;29;20046;-79
2021/03/06 09:32:11;;;;;;;2.03;0.98;;;;;;;53.99;0.00;99221.66;9987043;29;20440;-79
2021/03/06 09:37:31;;;;;;;2.38;1.05;;;;;;;51.64;0.00;99212.84;9969933;29;20058;-80
2021/03/06 09:42:54;;;;;;;3.33;1.15;;;;;;;50.58;0.00;99220.84;9982744;29;20368;-79
2021/03/06 09:48:15;;;;;;;1.85;1.33;;;;;;;46.63;1.26;99213.06;9969417;29;20417;-85
2021/03/06 09:53:35;;;;;;;2.40;1.40;;;;;;;47.24;0.87;99219.13;9969308;29;20091;-80
2021/03/06 09:59:04;;;;;;;3.88;1.15;;;;;;;48.05;0.84;99213.47;9982038;29;20081;-78
2021/03/06 10:04:24;;;;;;;2.92;1.10;;;;;;;48.74;0.31;99211.31;9969037;29;20050;-81
2021/03/06 10:09:44;;;;;;;1.60;0.90;;;;;;;49.99;0.00;99210.22;10010393;29;20092;-85
2021/03/06 10:15:05;;;;;;;4.40;0.50;;;;;;;48.85;0.15;99203.19;10057622;29;20054;-80
2021/03/06 10:20:28;;;;;;;1.77;0.70;;;;;;;49.74;0.05;99207.59;10033416;29;20053;-78
2021/03/06 10:25:48;;;;;;;2.00;1.27;;;;;;;46.52;0.34;99183.38;10052403;29;20449;-80
2021/03/06 10:31:27;;;;;;;1.48;0.85;;;;;;;48.49;0.34;99179.63;10039224;29;20057;-77
2021/03/06 10:37:08;;;;;;;2.60;1.60;;;;;;;48.63;0.30;99193.50;10050291;29;20045;-76
2021/03/06 10:42:46;;;;;;;2.38;1.42;;;;;;;40.15;1.92;99175.97;10051159;29;20056;-78
2021/03/06 10:48:07;;;;;;;2.60;1.80;;;;;;;33.95;4.34;99187.34;10026173;29;20046;-78
2021/03/06 10:53:28;;;;;;;2.92;1.90;;;;;;;29.35;6.43;99190.16;10038233;29;20042;-79
2021/03/06 10:58:47;;;;;;;;;;;;;;;24.24;8.43;99185.38;10038719;29;20055;-80
2021/03/06 11:04:07;;;;;;;5.55;1.90;;;;;;;23.70;9.90;99188.34;10037735;29;19924;-78
2021/03/06 11:09:28;;;;;;;2.40;0.90;;;;;;;23.37;10.25;99188.47;10037426;29;20066;-76
2021/03/06 11:15:07;;;;;;;4.63;0.80;;;;;;;22.71;10.28;99181.44;10012471;29;20064;-79
2021/03/06 11:20:29;;;;;;;2.45;1.13;;;;;;;19.91;10.33;99181.53;10049997;29;20054;-78
2021/03/06 11:25:49;;;;;;;2.90;1.27;;;;;;;19.80;11.66;99175.94;10050156;29;20061;-78
2021/03/06 11:31:09;;;;;;;1.70;1.00;;;;;;;19.50;11.61;99177.84;10036047;29;20056;-77
2021/03/06 11:36:34;;;;;;;6.93;1.05;;;;;;;19.30;12.45;99160.44;10023987;29;20132;-78
2021/03/06 11:41:53;;;;;;;2.67;1.25;;;;;;;18.32;13.05;99160.47;10049431;29;20169;-77
2021/03/06 11:47:13;;;;;;;2.30;1.50;;;;;;;16.80;13.39;99148.88;10060236;29;20069;-78
2021/03/06 11:52:33;;;;;;;2.30;1.25;;;;;;;15.70;14.12;99139.38;10047267;29;20505;-78
2021/03/06 11:57:52;;;;;;;3.72;1.50;;;;;;;16.01;14.49;99130.94;10047792;29;20057;-76
2021/03/06 12:03:12;;;;;;;3.75;1.73;;;;;;;15.78;14.83;99124.38;10036020;29;20050;-78
2021/03/06 12:08:32;;;;;;;2.33;1.50;;;;;;;15.38;15.25;99106.88;10035316;29;20053;-79
2021/03/06 12:13:52;;;;;;;3.08;1.80;;;;;;;15.12;15.79;99111.38;10048889;29;20449;-79
2021/03/06 12:19:11;;;;;;;2.90;1.73;;;;;;;15.14;15.85;99105.88;10035968;29;20106;-78
2021/03/06 12:24:31;;;;;;;5.40;1.95;;;;;;;14.82;15.57;99100.75;10049187;29;20045;-77
2021/03/06 12:29:52;;;;;;;2.10;1.50;;;;;;;14.48;16.22;99091.28;10036496;29;20042;-78
2021/03/06 12:35:12;;;;;;;2.88;1.30;;;;;;;14.25;16.19;99088.84;10049121;29;20049;-78
2021/03/06 12:40:32;;;;;;;2.92;1.38;;;;;;;13.77;16.71;99080.31;10062183;29;20041;-78
2021/03/06 12:45:51;;;;;;;3.40;1.48;;;;;;;13.40;16.84;99069.09;10036659;29;20073;-78
2021/03/06 12:57:04;;;;;;;3.05;1.45;;;;;;;13.39;17.02;99064.81;10198882;23;20358;-80
2021/03/06 13:02:36;;;;;;;3.03;1.30;;;;;;;12.95;17.28;99052.91;11320981;23;20501;-77
2021/03/06 13:07:56;;;;;;;2.40;1.38;;;;;;;12.94;17.58;99065.44;10087799;29;20041;-80
2021/03/06 13:19:33;;;;;;;2.72;1.58;;;;;;;12.31;17.98;99050.66;10483176;23;20067;-83
2021/03/06 13:25:06;;;;;;;2.45;1.58;;;;;;;11.57;18.20;99053.56;11127119;23;20118;-78
2021/03/06 13:30:57;;;;;;;2.90;1.40;;;;;;;10.91;18.88;99038.16;11977418;23;20036;31
2021/03/06 13:36:18;;;;;;;2.17;1.52;;;;;;;10.93;19.19;99041.88;9918367;29;20039;-80
2021/03/06 13:41:37;;;;;;;2.75;1.50;;;;;;;10.92;19.13;99043.19;9909548;30;20043;-80
2021/03/06 13:46:57;;;;;;;3.00;1.85;;;;;;;10.97;19.17;99025.44;9910030;30;20058;-79
2021/03/06 13:52:17;;;;;;;3.55;2.17;;;;;;;11.00;19.52;99029.91;9913416;29;20055;-79
2021/03/06 13:57:37;;;;;;;2.53;1.48;;;;;;;11.15;19.41;99020.69;9916366;29;20051;-81
2021/03/06 14:02:58;;;;;;;2.70;1.77;;;;;;;11.04;19.78;99018.34;9910078;30;20043;-79
2021/03/06 14:08:18;;;;;;;3.75;1.92;;;;;;;10.84;19.58;99023.66;9938065;24;20043;-80
2021/03/06 14:13:38;;;;;;;3.47;1.90;;;;;;;10.92;19.88;99012.44;10059931;29;20050;-80
2021/03/06 14:18:58;;;;;;;2.42;1.50;;;;;;;10.93;20.17;99016.00;10072657;29;20505;-79
2021/03/06 14:24:18;;;;;;;3.33;1.90;;;;;;;10.89;20.52;99013.56;10072008;29;20045;-79
2021/03/06 14:29:38;;;;;;;5.07;2.42;;;;;;;10.80;20.32;99003.00;10059872;29;20056;-78
2021/03/06 14:34:58;;;;;;;3.58;2.00;;;;;;;10.66;21.03;98996.94;10146994;23;20016;-78
2021/03/06 14:41:03;;;;;;;3.55;1.85;;;;;;;10.59;20.75;98986.53;10096060;24;20045;31
2021/03/06 14:46:24;;;;;;;5.78;2.65;;;;;;;10.20;21.28;98982.41;10303974;23;20117;-83
2021/03/06 15:24:43;;;;;;;4.10;2.33;;;;;;;8.80;24.03;98946.09;10898911;24;20077;-79
2021/03/06 15:30:39;;;;;;;4.32;2.67;;;;;;;8.64;23.65;98939.00;10612447;24;20883;31
2021/03/06 15:35:52;;;;;;;6.57;3.08;;;;;;;8.58;24.00;98936.38;10245898;24;20032;-82
2021/03/06 15:41:12;;;;;;;4.75;2.38;;;;;;;8.30;24.52;98936.50;10787698;24;20092;-81
2021/03/06 15:46:32;;;;;;;4.60;3.13;;;;;;;8.10;25.02;98932.50;10119281;24;20061;-80
2021/03/06 15:51:52;;;;;;;4.10;2.78;;;;;;;7.72;24.57;98930.28;10012636;29;20053;-78
2021/03/06 15:57:11;;;;;;;5.50;3.35;;;;;;;7.57;25.52;98924.63;10024491;29;20042;-77
2021/03/06 16:02:31;;;;;;;7.57;4.00;;;;;;;7.37;25.46;98928.94;10010213;29;20042;-75
2021/03/06 16:07:51;;;;;;;6.55;3.15;;;;;;;7.22;25.65;98923.25;10011383;29;20060;-78
2021/03/06 16:13:10;;;;;;;5.88;3.08;;;;;;;6.95;25.65;98922.69;10011148;29;20384;-79
2021/03/06 16:18:30;;;;;;;4.78;3.42;;;;;;;6.81;26.06;98919.22;10011272;29;20094;-76
2021/03/06 16:23:50;;;;;;;5.38;2.92;;;;;;;6.66;26.03;98918.31;10010918;29;20046;-79
2021/03/06 16:29:10;;;;;;;6.43;2.83;;;;;;;6.37;26.87;98920.25;10012034;29;20057;-79
2021/03/06 16:34:29;;;;;;;4.13;2.60;;;;;;;6.18;26.93;98910.09;9999687;29;20099;-75
2021/03/06 16:39:49;;;;;;;6.97;4.13;;;;;;;5.98;27.33;98919.06;10034723;29;20104;-77
2021/03/06 16:45:10;;;;;;;4.60;3.28;;;;;;;5.79;27.57;98913.66;10020221;29;20069;-78
2021/03/06 16:50:29;;;;;;;8.38;3.40;;;;;;;5.58;28.10;98910.00;9990454;29;20046;-79
2021/03/06 16:55:49;;;;;;;5.43;3.33;;;;;;;5.40;28.06;98911.59;9971427;29;20054;-78
2021/03/06 17:01:09;;;;;;;10.00;3.78;;;;;;;5.21;28.39;98906.19;9971375;29;20106;-75
2021/03/06 17:06:29;;;;;;;10.48;4.82;;;;;;;5.05;28.96;98910.72;9970759;29;20491;-77
2021/03/06 17:11:49;;;;;;;7.97;4.80;;;;;;;4.88;29.15;98913.00;9983928;29;20050;-75
2021/03/06 17:17:09;;;;;;;9.98;6.13;;;;;;;4.69;29.29;98904.03;9983012;29;20046;-75
2021/03/06 17:22:28;;;;;;;9.77;6.47;;;;;;;4.56;29.93;98908.25;9969753;29;20050;-76
2021/03/06 17:27:48;;;;;;;11.15;6.07;;;;;;;4.35;30.41;98914.84;9970650;29;20042;-75
2021/03/06 17:33:08;;;;;;;9.30;6.47;;;;;;;4.21;30.61;98914.78;10032924;29;20050;-77
2021/03/06 17:38:28;;;;;;;11.40;7.28;;;;;;;4.07;31.08;98910.44;10027469;29;20045;-76
2021/03/06 17:43:48;;;;;;;11.38;6.97;;;;;;;4.01;31.17;98921.56;10045327;29;20070;-77
2021/03/06 17:49:08;;;;;;;12.88;7.57;;;;;;;3.91;31.54;98919.69;10061437;29;20060;-79
2021/03/06 17:54:28;;;;;;;13.90;7.40;;;;;;;3.77;32.20;98929.16;10019963;29;20493;-76
2021/03/06 17:59:47;;;;;;;15.20;7.90;;;;;;;3.59;32.57;98912.03;10019279;29;20053;-77
2021/03/06 18:05:09;;;;;;;13.82;8.23;;;;;;;3.44;32.63;98919.97;10058610;29;20060;-75
2021/03/06 18:10:29;;;;;;;15.93;8.63;;;;;;;3.38;33.03;98922.06;10020333;29;20054;-79
2021/03/06 18:15:49;;;;;;;13.57;8.82;;;;;;;3.26;33.40;98917.91;10032550;29;20053;-76
2021/03/06 18:21:08;;;;;;;18.42;10.15;;;;;;;3.17;34.04;98905.94;10032182;29;20545;-78
2021/03/06 18:26:28;;;;;;;19.98;12.25;;;;;;;3.11;34.09;98910.78;10032466;29;20041;-75
2021/03/06 18:31:48;;;;;;;20.98;11.88;;;;;;;3.06;34.30;98924.59;10040444;29;20102;-79
2021/03/06 18:43:14;;;;;;;11.27;7.93;;;;;;;2.97;34.65;98914.66;9946614;29;20063;-82
2021/03/06 18:48:34;;;;;;;11.77;5.85;;;;;;;2.89;34.80;98908.19;9958975;29;20027;-82
2021/03/06 18:53:54;;;;;;;10.45;6.63;;;;;;;2.86;34.92;98914.75;9953145;30;20062;-79
2021/03/06 18:59:14;;;;;;;8.40;6.05;;;;;;;2.77;35.07;98912.31;9949523;29;20437;-83
2021/03/06 19:04:34;;;;;;;10.98;5.85;;;;;;;2.73;35.56;98911.84;9963256;29;20051;-84
2021/03/06 19:09:54;;;;;;;11.45;5.88;;;;;;;2.71;35.88;98922.66;9990079;29;20054;-75
2021/03/06 19:15:15;;;;;;;8.18;5.07;;;;;;;2.68;35.77;98916.13;9976075;29;20061;-80
2021/03/06 19:20:34;;;;;;;8.98;5.47;;;;;;;2.64;35.80;98923.94;9988759;29;20046;-79
2021/03/06 19:25:54;;;;;;;16.02;9.95;;;;;;;2.57;37.09;98916.22;9976172;29;20043;-80
2021/03/06 19:31:14;;;;;;;23.20;13.45;;;;;;;2.50;36.74;98912.00;9975175;29;20046;-79
2021/03/06 19:36:36;;;;;;;18.30;11.50;;;;;;;2.50;36.88;98905.75;9987465;29;20107;-78
2021/03/06 19:41:55;;;;;;;18.85;10.95;;;;;;;2.41;36.82;98906.81;9974766;29;20058;-81
2021/03/06 19:47:15;;;;;;;17.88;11.40;;;;;;;2.35;37.09;98914.38;9974820;29;20410;-79
2021/03/06 19:52:35;;;;;;;15.63;9.35;;;;;;;2.32;37.12;98904.38;9973429;29;20047;-80
2021/03/06 19:57:55;;;;;;;21.83;12.57;;;;;;;2.35;37.56;98903.34;9987308;29;20054;-80
2021/03/06 20:03:14;;;;;;;20.75;12.75;;;;;;;2.31;37.18;98908.38;9974291;29;20053;-80
2021/03/06 20:08:34;;;;;;;15.77;9.85;;;;;;;2.32;38.36;98903.59;9987597;29;20114;-79
2021/03/06 20:13:54;;;;;;;16.20;10.13;;;;;;;2.20;37.98;98905.69;9988092;29;20046;-79
2021/03/06 20:19:14;;;;;;;14.95;9.52;;;;;;;2.11;37.91;98903.97;9987008;29;20076;-79
2021/03/06 20:24:33;;;;;;;16.50;8.88;;;;;;;2.09;38.38;98906.50;9988061;29;20073;-79
2021/03/06 20:29:53;;;;;;;13.55;8.90;;;;;;;2.06;38.68;98902.03;9973891;29;20451;-78
2021/03/06 20:35:16;;;;;;;14.50;9.07;;;;;;;2.08;38.84;98907.00;9974951;29;20047;-79
2021/03/06 20:40:39;;;;;;;14.43;8.80;;;;;;;2.08;38.62;98904.25;9986350;29;20136;-79
2021/03/06 20:45:59;;;;;;;16.83;10.32;;;;;;;2.04;39.05;98904.53;9974686;29;20051;-80
2021/03/06 20:51:47;;;;;;;19.38;10.57;;;;;;;1.89;39.42;98915.13;9987027;29;20058;-79
2021/03/06 20:57:07;;;;;;;22.20;10.98;;;;;;;1.81;39.71;98906.63;9973259;29;20046;-78
2021/03/06 21:02:27;;;;;;;16.00;10.30;;;;;;;1.76;39.79;98901.91;9972878;29;20050;-79
2021/03/06 21:07:47;;;;;;;17.92;10.70;;;;;;;1.67;40.32;98896.69;9986125;29;20047;-78
2021/03/06 21:13:07;;;;;;;16.45;11.02;;;;;;;1.57;40.81;98892.72;9986765;29;20075;-78
2021/03/06 21:18:27;;;;;;;16.10;10.57;;;;;;;1.38;41.41;98887.03;9972833;29;20053;-78
2021/03/06 21:23:46;;;;;;;21.33;11.23;;;;;;;1.09;41.55;98880.84;9985440;29;20051;-77
2021/03/06 21:29:09;;;;;;;20.17;11.15;;;;;;;0.94;41.84;98882.38;9986076;29;20054;-79
2021/03/06 21:34:29;;;;;;;20.23;11.68;;;;;;;0.84;42.34;98882.63;9973003;29;20047;-81
2021/03/06 21:47:37;;;;;;;21.15;11.90;;;;;;;0.73;43.06;98870.91;9984752;29;20042;-80
2021/03/06 21:52:56;;;;;;;20.75;11.52;;;;;;;0.71;43.14;98873.41;9971146;29;20053;-81
2021/03/06 21:58:16;;;;;;;18.83;10.98;;;;;;;0.74;43.18;98866.91;9983199;29;20452;-80
2021/03/06 22:03:36;;;;;;;16.70;10.93;;;;;;;0.71;43.39;98863.16;9983177;29;20042;-79
2021/03/06 22:08:56;;;;;;;17.40;10.45;;;;;;;0.66;43.67;98865.91;9983037;29;20050;-79
2021/03/06 22:14:16;;;;;;;20.95;13.57;;;;;;;0.69;44.72;98870.41;9970429;29;20478;-79
2021/03/06 22:19:36;;;;;;;23.17;12.52;;;;;;;0.62;44.11;98866.16;9988868;29;20046;-80
2021/03/06 22:24:56;;;;;;;20.75;13.13;;;;;;;0.56;44.90;98866.16;10003593;29;20050;-80
2021/03/06 22:30:16;;;;;;;18.27;11.07;;;;;;;0.46;45.28;98864.16;9977269;29;20054;-79
2021/03/06 22:35:36;;;;;;;15.68;10.45;;;;;;;0.40;44.74;98855.19;9989630;29;20119;-79
2021/03/06 22:40:56;;;;;;;14.02;9.48;;;;;;;0.36;44.74;98865.66;9976950;29;20066;-79
2021/03/06 22:46:16;;;;;;;14.82;8.23;;;;;;;0.38;45.31;98858.41;9989691;29;20050;-79
2021/03/06 22:51:36;;;;;;;14.15;7.82;;;;;;;0.45;45.27;98857.91;9975893;29;20379;-79
2021/03/06 22:56:55;;;;;;;12.57;7.85;;;;;;;0.48;45.56;98853.41;9976464;29;20111;-80
2021/03/06 23:02:16;;;;;;;11.38;7.57;;;;;;;0.51;45.29;98855.19;10034308;24;20062;-79
2021/03/06 23:07:37;;;;;;;13.70;8.18;;;;;;;0.48;45.56;98834.94;10039452;29;20054;-80
2021/03/06 23:12:57;;;;;;;15.55;8.98;;;;;;;0.40;45.65;98836.69;10013691;29;20042;-79
2021/03/06 23:18:17;;;;;;;16.77;9.32;;;;;;;0.33;45.62;98828.19;10013088;29;20053;-79
2021/03/06 23:23:37;;;;;;;13.38;8.43;;;;;;;0.27;45.77;98823.44;10000876;29;20065;-79
2021/03/06 23:28:57;;;;;;;15.60;8.77;;;;;;;0.20;46.12;98825.94;10000242;29;20114;-80
2021/03/06 23:34:16;;;;;;;19.55;11.07;;;;;;;0.17;46.81;98822.19;9999995;29;20045;-79
2021/03/06 23:39:36;;;;;;;21.75;13.18;;;;;;;0.08;46.77;98824.44;10012374;29;20045;-79
2021/03/06 23:44:56;;;;;;;20.38;11.38;;;;;;;-0.01;47.35;98822.66;9999991;29;20050;-79
2021/03/06 23:50:16;;;;;;;15.85;9.75;;;;;;;-0.07;46.94;98814.44;9987235;29;20054;-79
2021/03/06 23:55:35;;;;;;;15.15;9.23;;;;;;;-0.07;47.85;98814.44;10000194;29;20046;-79
